sensor_id;sensor_type;location;lat;lon;timestamp;P1;durP1;ratioP1;P2;durP2;ratioP2
65996;SDS011;52765;52.258;21.052;2022-12-18T00:03:59;37.78;;;17.20;;
65996;SDS011;52765;52.258;21.052;2022-12-18T00:06:26;40.92;;;17.65;;
65996;SDS011;52765;52.258;21.052;2022-12-18T00:08:54;42.08;;;18.90;;
65996;SDS011;52765;52.258;21.052;2022-12-18T00:11:22;46.13;;;20.08;;
65996;SDS011;52765;52.258;21.052;2022-12-18T00:13:49;44.85;;;20.33;;
65996;SDS011;52765;52.258;21.052;2022-12-18T00:16:17;50.28;;;19.70;;
65996;SDS011;52765;52.258;21.052;2022-12-18T00:18:45;49.42;;;19.05;;
65996;SDS011;52765;52.258;21.052;2022-12-18T00:21:15;48.83;;;18.25;;
65996;SDS011;52765;52.258;21.052;2022-12-18T00:23:43;41.15;;;16.63;;
65996;SDS011;52765;52.258;21.052;2022-12-18T00:26:14;45.97;;;17.15;;
65996;SDS011;52765;52.258;21.052;2022-12-18T00:31:11;37.80;;;15.30;;
65996;SDS011;52765;52.258;21.052;2022-12-18T00:33:40;36.85;;;15.48;;
65996;SDS011;52765;52.258;21.052;2022-12-18T00:36:06;37.50;;;15.68;;
65996;SDS011;52765;52.258;21.052;2022-12-18T00:38:35;39.65;;;14.52;;
65996;SDS011;52765;52.258;21.052;2022-12-18T00:41:01;37.60;;;15.88;;
65996;SDS011;52765;52.258;21.052;2022-12-18T00:43:27;33.97;;;13.65;;
65996;SDS011;52765;52.258;21.052;2022-12-18T00:45:53;28.25;;;12.77;;
65996;SDS011;52765;52.258;21.052;2022-12-18T00:48:19;35.25;;;12.85;;
65996;SDS011;52765;52.258;21.052;2022-12-18T00:50:44;34.15;;;13.23;;
65996;SDS011;52765;52.258;21.052;2022-12-18T00:53:10;30.10;;;13.15;;
65996;SDS011;52765;52.258;21.052;2022-12-18T00:55:39;25.20;;;13.05;;
65996;SDS011;52765;52.258;21.052;2022-12-18T00:58:06;29.13;;;12.23;;
65996;SDS011;52765;52.258;21.052;2022-12-18T01:00:32;32.55;;;13.48;;
65996;SDS011;52765;52.258;21.052;2022-12-18T01:02:58;37.00;;;13.60;;
65996;SDS011;52765;52.258;21.052;2022-12-18T01:05:24;33.38;;;12.82;;
65996;SDS011;52765;52.258;21.052;2022-12-18T01:07:50;34.45;;;12.75;;
65996;SDS011;52765;52.258;21.052;2022-12-18T01:10:16;32.50;;;13.40;;
65996;SDS011;52765;52.258;21.052;2022-12-18T01:12:41;30.02;;;13.07;;
65996;SDS011;52765;52.258;21.052;2022-12-18T01:15:07;32.97;;;13.77;;
65996;SDS011;52765;52.258;21.052;2022-12-18T01:17:35;30.52;;;11.85;;
65996;SDS011;52765;52.258;21.052;2022-12-18T01:20:01;31.23;;;13.27;;
65996;SDS011;52765;52.258;21.052;2022-12-18T01:22:26;34.40;;;13.00;;
65996;SDS011;52765;52.258;21.052;2022-12-18T01:24:53;34.35;;;13.80;;
65996;SDS011;52765;52.258;21.052;2022-12-18T01:27:19;26.80;;;11.70;;
65996;SDS011;52765;52.258;21.052;2022-12-18T01:29:44;30.02;;;12.57;;
65996;SDS011;52765;52.258;21.052;2022-12-18T01:32:10;33.03;;;13.57;;
65996;SDS011;52765;52.258;21.052;2022-12-18T01:34:36;27.83;;;12.52;;
65996;SDS011;52765;52.258;21.052;2022-12-18T01:37:04;28.98;;;13.38;;
65996;SDS011;52765;52.258;21.052;2022-12-18T01:39:31;24.48;;;11.95;;
65996;SDS011;52765;52.258;21.052;2022-12-18T01:42:15;30.02;;;12.88;;
65996;SDS011;52765;52.258;21.052;2022-12-18T01:50:17;32.22;;;12.95;;
65996;SDS011;52765;52.258;21.052;2022-12-18T01:53:03;27.33;;;12.35;;
65996;SDS011;52765;52.258;21.052;2022-12-18T01:55:35;30.73;;;12.77;;
65996;SDS011;52765;52.258;21.052;2022-12-18T01:58:09;35.03;;;14.43;;
65996;SDS011;52765;52.258;21.052;2022-12-18T02:00:35;34.22;;;13.13;;
65996;SDS011;52765;52.258;21.052;2022-12-18T02:03:00;38.38;;;13.85;;
65996;SDS011;52765;52.258;21.052;2022-12-18T02:06:00;29.55;;;12.43;;
65996;SDS011;52765;52.258;21.052;2022-12-18T02:10:57;31.25;;;13.05;;
65996;SDS011;52765;52.258;21.052;2022-12-18T02:13:45;30.15;;;13.68;;
65996;SDS011;52765;52.258;21.052;2022-12-18T02:16:29;26.75;;;11.30;;
65996;SDS011;52765;52.258;21.052;2022-12-18T02:21:48;27.55;;;11.65;;
65996;SDS011;52765;52.258;21.052;2022-12-18T02:27:05;32.47;;;12.70;;
65996;SDS011;52765;52.258;21.052;2022-12-18T02:29:34;25.90;;;11.43;;
65996;SDS011;52765;52.258;21.052;2022-12-18T02:32:06;28.13;;;11.55;;
65996;SDS011;52765;52.258;21.052;2022-12-18T02:34:37;29.67;;;11.60;;
65996;SDS011;52765;52.258;21.052;2022-12-18T02:37:12;31.98;;;10.85;;
65996;SDS011;52765;52.258;21.052;2022-12-18T02:39:41;24.38;;;10.38;;
65996;SDS011;52765;52.258;21.052;2022-12-18T02:42:09;26.23;;;11.50;;
65996;SDS011;52765;52.258;21.052;2022-12-18T02:44:46;28.77;;;10.70;;
65996;SDS011;52765;52.258;21.052;2022-12-18T02:47:15;31.20;;;10.77;;
65996;SDS011;52765;52.258;21.052;2022-12-18T02:49:52;31.85;;;11.13;;
65996;SDS011;52765;52.258;21.052;2022-12-18T02:57:54;25.15;;;10.77;;
65996;SDS011;52765;52.258;21.052;2022-12-18T03:00:30;24.75;;;9.73;;
65996;SDS011;52765;52.258;21.052;2022-12-18T03:03:35;28.33;;;10.40;;
65996;SDS011;52765;52.258;21.052;2022-12-18T03:06:07;24.73;;;10.73;;
65996;SDS011;52765;52.258;21.052;2022-12-18T03:08:39;26.08;;;10.52;;
65996;SDS011;52765;52.258;21.052;2022-12-18T03:11:10;25.25;;;10.77;;
65996;SDS011;52765;52.258;21.052;2022-12-18T03:13:43;26.58;;;9.65;;
65996;SDS011;52765;52.258;21.052;2022-12-18T03:16:23;22.75;;;9.63;;
65996;SDS011;52765;52.258;21.052;2022-12-18T03:19:03;33.78;;;10.05;;
65996;SDS011;52765;52.258;21.052;2022-12-18T03:21:39;22.13;;;9.82;;
65996;SDS011;52765;52.258;21.052;2022-12-18T03:24:08;24.45;;;9.90;;
65996;SDS011;52765;52.258;21.052;2022-12-18T03:26:36;23.85;;;9.50;;
65996;SDS011;52765;52.258;21.052;2022-12-18T03:29:07;23.50;;;10.38;;
65996;SDS011;52765;52.258;21.052;2022-12-18T03:31:39;25.13;;;9.63;;
65996;SDS011;52765;52.258;21.052;2022-12-18T03:34:12;22.38;;;9.45;;
65996;SDS011;52765;52.258;21.052;2022-12-18T03:36:47;19.77;;;9.18;;
65996;SDS011;52765;52.258;21.052;2022-12-18T03:39:13;22.02;;;9.32;;
65996;SDS011;52765;52.258;21.052;2022-12-18T03:41:48;23.02;;;10.40;;
65996;SDS011;52765;52.258;21.052;2022-12-18T03:45:22;23.58;;;9.93;;
65996;SDS011;52765;52.258;21.052;2022-12-18T03:53:27;25.67;;;10.13;;
65996;SDS011;52765;52.258;21.052;2022-12-18T03:56:01;24.25;;;9.40;;
65996;SDS011;52765;52.258;21.052;2022-12-18T03:58:29;23.77;;;10.10;;
65996;SDS011;52765;52.258;21.052;2022-12-18T04:00:59;23.80;;;10.38;;
65996;SDS011;52765;52.258;21.052;2022-12-18T04:03:27;25.55;;;10.50;;
65996;SDS011;52765;52.258;21.052;2022-12-18T04:05:56;20.77;;;9.43;;
65996;SDS011;52765;52.258;21.052;2022-12-18T04:08:24;26.02;;;10.95;;
65996;SDS011;52765;52.258;21.052;2022-12-18T04:10:52;23.70;;;9.18;;
65996;SDS011;52765;52.258;21.052;2022-12-18T04:13:22;22.17;;;9.95;;
65996;SDS011;52765;52.258;21.052;2022-12-18T04:15:48;24.63;;;10.30;;
65996;SDS011;52765;52.258;21.052;2022-12-18T04:18:14;25.20;;;9.85;;
65996;SDS011;52765;52.258;21.052;2022-12-18T04:20:39;26.63;;;10.07;;
65996;SDS011;52765;52.258;21.052;2022-12-18T04:23:05;22.95;;;8.55;;
65996;SDS011;52765;52.258;21.052;2022-12-18T04:25:30;26.08;;;9.48;;
65996;SDS011;52765;52.258;21.052;2022-12-18T04:27:55;23.70;;;9.63;;
65996;SDS011;52765;52.258;21.052;2022-12-18T04:30:21;23.35;;;10.40;;
65996;SDS011;52765;52.258;21.052;2022-12-18T04:32:46;22.42;;;9.73;;
65996;SDS011;52765;52.258;21.052;2022-12-18T04:35:12;24.73;;;9.50;;
65996;SDS011;52765;52.258;21.052;2022-12-18T04:37:37;25.67;;;10.23;;
65996;SDS011;52765;52.258;21.052;2022-12-18T04:40:03;28.80;;;10.45;;
65996;SDS011;52765;52.258;21.052;2022-12-18T04:42:28;21.55;;;9.13;;
65996;SDS011;52765;52.258;21.052;2022-12-18T04:44:54;19.10;;;8.77;;
65996;SDS011;52765;52.258;21.052;2022-12-18T04:47:19;25.58;;;10.30;;
65996;SDS011;52765;52.258;21.052;2022-12-18T04:49:45;23.27;;;9.38;;
65996;SDS011;52765;52.258;21.052;2022-12-18T04:52:10;21.88;;;9.50;;
65996;SDS011;52765;52.258;21.052;2022-12-18T04:54:36;21.13;;;9.10;;
65996;SDS011;52765;52.258;21.052;2022-12-18T04:57:01;26.40;;;10.32;;
65996;SDS011;52765;52.258;21.052;2022-12-18T04:59:27;24.65;;;9.93;;
65996;SDS011;52765;52.258;21.052;2022-12-18T05:01:52;21.73;;;9.35;;
65996;SDS011;52765;52.258;21.052;2022-12-18T05:04:18;25.83;;;9.40;;
65996;SDS011;52765;52.258;21.052;2022-12-18T05:06:43;31.83;;;9.68;;
65996;SDS011;52765;52.258;21.052;2022-12-18T05:09:11;24.25;;;9.88;;
65996;SDS011;52765;52.258;21.052;2022-12-18T05:11:36;23.77;;;10.13;;
65996;SDS011;52765;52.258;21.052;2022-12-18T05:14:02;22.30;;;9.43;;
65996;SDS011;52765;52.258;21.052;2022-12-18T05:16:27;22.00;;;9.73;;
65996;SDS011;52765;52.258;21.052;2022-12-18T05:18:53;24.00;;;10.80;;
65996;SDS011;52765;52.258;21.052;2022-12-18T05:21:20;22.33;;;9.70;;
65996;SDS011;52765;52.258;21.052;2022-12-18T05:23:46;22.50;;;9.27;;
65996;SDS011;52765;52.258;21.052;2022-12-18T05:26:14;25.02;;;10.20;;
65996;SDS011;52765;52.258;21.052;2022-12-18T05:28:41;21.67;;;9.98;;
65996;SDS011;52765;52.258;21.052;2022-12-18T05:31:07;24.23;;;9.77;;
65996;SDS011;52765;52.258;21.052;2022-12-18T05:33:33;25.08;;;10.75;;
65996;SDS011;52765;52.258;21.052;2022-12-18T05:36:00;23.63;;;9.95;;
65996;SDS011;52765;52.258;21.052;2022-12-18T05:38:27;22.13;;;10.02;;
65996;SDS011;52765;52.258;21.052;2022-12-18T05:40:54;26.92;;;10.35;;
65996;SDS011;52765;52.258;21.052;2022-12-18T05:43:20;29.27;;;10.32;;
65996;SDS011;52765;52.258;21.052;2022-12-18T05:45:47;28.05;;;9.88;;
65996;SDS011;52765;52.258;21.052;2022-12-18T05:48:13;27.38;;;10.77;;
65996;SDS011;52765;52.258;21.052;2022-12-18T05:50:40;22.38;;;9.63;;
65996;SDS011;52765;52.258;21.052;2022-12-18T05:53:06;26.05;;;10.18;;
65996;SDS011;52765;52.258;21.052;2022-12-18T05:55:33;24.63;;;10.20;;
65996;SDS011;52765;52.258;21.052;2022-12-18T05:58:00;22.95;;;9.48;;
65996;SDS011;52765;52.258;21.052;2022-12-18T06:00:25;26.10;;;10.63;;
65996;SDS011;52765;52.258;21.052;2022-12-18T06:02:51;27.58;;;10.45;;
65996;SDS011;52765;52.258;21.052;2022-12-18T06:05:16;27.13;;;10.45;;
65996;SDS011;52765;52.258;21.052;2022-12-18T06:07:42;33.20;;;12.23;;
65996;SDS011;52765;52.258;21.052;2022-12-18T06:10:07;30.30;;;12.13;;
65996;SDS011;52765;52.258;21.052;2022-12-18T06:12:33;36.63;;;13.00;;
65996;SDS011;52765;52.258;21.052;2022-12-18T06:14:59;33.20;;;12.85;;
65996;SDS011;52765;52.258;21.052;2022-12-18T06:17:31;36.25;;;14.35;;
65996;SDS011;52765;52.258;21.052;2022-12-18T06:19:57;33.67;;;12.73;;
65996;SDS011;52765;52.258;21.052;2022-12-18T06:22:23;38.17;;;15.02;;
65996;SDS011;52765;52.258;21.052;2022-12-18T06:24:49;36.05;;;12.95;;
65996;SDS011;52765;52.258;21.052;2022-12-18T06:27:14;37.35;;;14.00;;
65996;SDS011;52765;52.258;21.052;2022-12-18T06:29:40;36.78;;;13.90;;
65996;SDS011;52765;52.258;21.052;2022-12-18T06:32:05;41.45;;;15.68;;
65996;SDS011;52765;52.258;21.052;2022-12-18T06:34:31;43.00;;;16.77;;
65996;SDS011;52765;52.258;21.052;2022-12-18T06:36:58;41.88;;;15.35;;
65996;SDS011;52765;52.258;21.052;2022-12-18T06:39:24;43.85;;;15.98;;
65996;SDS011;52765;52.258;21.052;2022-12-18T06:41:51;52.65;;;16.63;;
65996;SDS011;52765;52.258;21.052;2022-12-18T06:44:17;54.58;;;19.25;;
65996;SDS011;52765;52.258;21.052;2022-12-18T06:46:43;53.58;;;18.08;;
65996;SDS011;52765;52.258;21.052;2022-12-18T06:49:08;58.17;;;17.90;;
65996;SDS011;52765;52.258;21.052;2022-12-18T06:51:34;58.90;;;19.25;;
65996;SDS011;52765;52.258;21.052;2022-12-18T06:54:00;57.88;;;19.50;;
65996;SDS011;52765;52.258;21.052;2022-12-18T06:56:26;56.83;;;20.38;;
65996;SDS011;52765;52.258;21.052;2022-12-18T06:58:52;62.53;;;20.63;;
65996;SDS011;52765;52.258;21.052;2022-12-18T07:01:17;63.58;;;19.25;;
65996;SDS011;52765;52.258;21.052;2022-12-18T07:03:43;54.00;;;18.63;;
65996;SDS011;52765;52.258;21.052;2022-12-18T07:06:15;66.45;;;18.88;;
65996;SDS011;52765;52.258;21.052;2022-12-18T07:08:42;63.92;;;20.63;;
65996;SDS011;52765;52.258;21.052;2022-12-18T07:11:08;57.05;;;19.23;;
65996;SDS011;52765;52.258;21.052;2022-12-18T07:13:34;60.80;;;19.88;;
65996;SDS011;52765;52.258;21.052;2022-12-18T07:16:03;65.78;;;19.23;;
65996;SDS011;52765;52.258;21.052;2022-12-18T07:18:29;58.13;;;18.00;;
65996;SDS011;52765;52.258;21.052;2022-12-18T07:20:55;55.65;;;18.88;;
65996;SDS011;52765;52.258;21.052;2022-12-18T07:23:20;58.95;;;18.25;;
65996;SDS011;52765;52.258;21.052;2022-12-18T07:25:46;55.58;;;18.05;;
65996;SDS011;52765;52.258;21.052;2022-12-18T07:28:11;55.22;;;18.67;;
65996;SDS011;52765;52.258;21.052;2022-12-18T07:30:37;62.88;;;20.23;;
65996;SDS011;52765;52.258;21.052;2022-12-18T07:33:03;55.05;;;18.60;;
65996;SDS011;52765;52.258;21.052;2022-12-18T07:35:28;62.25;;;18.50;;
65996;SDS011;52765;52.258;21.052;2022-12-18T07:37:54;57.33;;;18.00;;
65996;SDS011;52765;52.258;21.052;2022-12-18T07:40:19;63.47;;;19.25;;
65996;SDS011;52765;52.258;21.052;2022-12-18T07:42:45;57.75;;;18.92;;
65996;SDS011;52765;52.258;21.052;2022-12-18T07:45:11;50.63;;;17.83;;
65996;SDS011;52765;52.258;21.052;2022-12-18T07:47:36;55.33;;;18.65;;
65996;SDS011;52765;52.258;21.052;2022-12-18T07:50:03;57.83;;;20.60;;
65996;SDS011;52765;52.258;21.052;2022-12-18T07:52:29;60.45;;;19.23;;
65996;SDS011;52765;52.258;21.052;2022-12-18T07:54:54;62.22;;;19.42;;
65996;SDS011;52765;52.258;21.052;2022-12-18T07:57:19;66.85;;;20.40;;
65996;SDS011;52765;52.258;21.052;2022-12-18T07:59:45;60.03;;;20.92;;
65996;SDS011;52765;52.258;21.052;2022-12-18T08:02:10;60.40;;;19.65;;
65996;SDS011;52765;52.258;21.052;2022-12-18T08:04:36;59.42;;;20.60;;
65996;SDS011;52765;52.258;21.052;2022-12-18T08:07:02;56.75;;;19.52;;
65996;SDS011;52765;52.258;21.052;2022-12-18T08:09:27;62.15;;;20.15;;
65996;SDS011;52765;52.258;21.052;2022-12-18T08:11:53;61.13;;;19.13;;
65996;SDS011;52765;52.258;21.052;2022-12-18T08:14:19;58.60;;;18.67;;
65996;SDS011;52765;52.258;21.052;2022-12-18T08:16:44;57.70;;;18.55;;
65996;SDS011;52765;52.258;21.052;2022-12-18T08:19:10;63.50;;;21.25;;
65996;SDS011;52765;52.258;21.052;2022-12-18T08:21:35;62.97;;;21.33;;
65996;SDS011;52765;52.258;21.052;2022-12-18T08:24:01;58.75;;;20.67;;
65996;SDS011;52765;52.258;21.052;2022-12-18T08:26:28;57.90;;;19.60;;
65996;SDS011;52765;52.258;21.052;2022-12-18T08:28:55;53.13;;;18.08;;
65996;SDS011;52765;52.258;21.052;2022-12-18T08:31:22;58.17;;;18.25;;
65996;SDS011;52765;52.258;21.052;2022-12-18T08:33:52;49.05;;;17.77;;
65996;SDS011;52765;52.258;21.052;2022-12-18T08:36:18;51.47;;;18.90;;
65996;SDS011;52765;52.258;21.052;2022-12-18T08:38:44;56.60;;;19.05;;
65996;SDS011;52765;52.258;21.052;2022-12-18T08:41:11;56.83;;;18.83;;
65996;SDS011;52765;52.258;21.052;2022-12-18T08:43:37;52.00;;;19.05;;
65996;SDS011;52765;52.258;21.052;2022-12-18T08:46:23;52.40;;;18.10;;
65996;SDS011;52765;52.258;21.052;2022-12-18T08:48:51;55.17;;;18.42;;
65996;SDS011;52765;52.258;21.052;2022-12-18T08:51:17;57.47;;;19.52;;
65996;SDS011;52765;52.258;21.052;2022-12-18T08:53:47;55.88;;;18.60;;
65996;SDS011;52765;52.258;21.052;2022-12-18T08:56:13;52.42;;;18.55;;
65996;SDS011;52765;52.258;21.052;2022-12-18T08:58:39;58.67;;;19.08;;
65996;SDS011;52765;52.258;21.052;2022-12-18T09:01:06;61.13;;;19.17;;
65996;SDS011;52765;52.258;21.052;2022-12-18T09:03:34;58.30;;;19.23;;
65996;SDS011;52765;52.258;21.052;2022-12-18T09:06:00;56.13;;;17.42;;
65996;SDS011;52765;52.258;21.052;2022-12-18T09:08:26;56.60;;;17.95;;
65996;SDS011;52765;52.258;21.052;2022-12-18T09:10:52;41.90;;;17.15;;
65996;SDS011;52765;52.258;21.052;2022-12-18T09:13:21;49.70;;;17.25;;
65996;SDS011;52765;52.258;21.052;2022-12-18T09:15:48;41.53;;;15.73;;
65996;SDS011;52765;52.258;21.052;2022-12-18T09:18:17;43.33;;;15.60;;
65996;SDS011;52765;52.258;21.052;2022-12-18T09:20:44;47.50;;;16.42;;
65996;SDS011;52765;52.258;21.052;2022-12-18T09:23:10;48.15;;;18.08;;
65996;SDS011;52765;52.258;21.052;2022-12-18T09:25:36;49.67;;;16.25;;
65996;SDS011;52765;52.258;21.052;2022-12-18T09:28:03;48.70;;;17.85;;
65996;SDS011;52765;52.258;21.052;2022-12-18T09:30:39;46.75;;;17.95;;
65996;SDS011;52765;52.258;21.052;2022-12-18T09:33:09;47.65;;;16.88;;
65996;SDS011;52765;52.258;21.052;2022-12-18T09:35:38;53.05;;;18.38;;
65996;SDS011;52765;52.258;21.052;2022-12-18T09:38:05;43.28;;;15.93;;
65996;SDS011;52765;52.258;21.052;2022-12-18T09:40:35;49.38;;;18.65;;
65996;SDS011;52765;52.258;21.052;2022-12-18T09:43:05;44.15;;;17.65;;
65996;SDS011;52765;52.258;21.052;2022-12-18T09:45:38;47.38;;;17.13;;
65996;SDS011;52765;52.258;21.052;2022-12-18T09:48:14;52.60;;;17.55;;
65996;SDS011;52765;52.258;21.052;2022-12-18T09:50:44;44.15;;;17.25;;
65996;SDS011;52765;52.258;21.052;2022-12-18T09:53:13;46.22;;;16.42;;
65996;SDS011;52765;52.258;21.052;2022-12-18T09:55:45;50.30;;;16.25;;
65996;SDS011;52765;52.258;21.052;2022-12-18T10:00:46;46.47;;;16.98;;
65996;SDS011;52765;52.258;21.052;2022-12-18T10:03:13;44.95;;;16.65;;
65996;SDS011;52765;52.258;21.052;2022-12-18T10:08:22;46.22;;;16.65;;
65996;SDS011;52765;52.258;21.052;2022-12-18T10:16:52;50.65;;;18.20;;
65996;SDS011;52765;52.258;21.052;2022-12-18T10:19:39;49.53;;;18.52;;
65996;SDS011;52765;52.258;21.052;2022-12-18T10:25:21;51.08;;;18.92;;
65996;SDS011;52765;52.258;21.052;2022-12-18T10:27:52;56.92;;;21.02;;
65996;SDS011;52765;52.258;21.052;2022-12-18T10:30:22;56.75;;;20.20;;
65996;SDS011;52765;52.258;21.052;2022-12-18T10:32:48;52.22;;;20.42;;
65996;SDS011;52765;52.258;21.052;2022-12-18T10:35:24;58.17;;;21.40;;
65996;SDS011;52765;52.258;21.052;2022-12-18T10:46:18;56.60;;;21.75;;
65996;SDS011;52765;52.258;21.052;2022-12-18T10:51:26;54.50;;;20.63;;
65996;SDS011;52765;52.258;21.052;2022-12-18T10:54:04;53.75;;;20.05;;
65996;SDS011;52765;52.258;21.052;2022-12-18T10:56:44;55.65;;;23.60;;
65996;SDS011;52765;52.258;21.052;2022-12-18T10:59:10;52.45;;;20.17;;
65996;SDS011;52765;52.258;21.052;2022-12-18T11:04:22;46.83;;;18.98;;
65996;SDS011;52765;52.258;21.052;2022-12-18T11:09:28;46.15;;;18.35;;
65996;SDS011;52765;52.258;21.052;2022-12-18T11:12:00;55.53;;;20.08;;
65996;SDS011;52765;52.258;21.052;2022-12-18T11:14:32;53.08;;;20.08;;
65996;SDS011;52765;52.258;21.052;2022-12-18T11:16:59;55.25;;;20.20;;
65996;SDS011;52765;52.258;21.052;2022-12-18T11:21:54;55.85;;;21.15;;
65996;SDS011;52765;52.258;21.052;2022-12-18T11:24:30;58.25;;;19.98;;
65996;SDS011;52765;52.258;21.052;2022-12-18T11:27:00;53.40;;;21.27;;
65996;SDS011;52765;52.258;21.052;2022-12-18T11:29:32;57.92;;;21.65;;
65996;SDS011;52765;52.258;21.052;2022-12-18T11:32:20;52.45;;;19.63;;
65996;SDS011;52765;52.258;21.052;2022-12-18T11:34:49;56.35;;;20.95;;
65996;SDS011;52765;52.258;21.052;2022-12-18T11:37:23;57.00;;;20.58;;
65996;SDS011;52765;52.258;21.052;2022-12-18T11:39:49;57.50;;;21.67;;
65996;SDS011;52765;52.258;21.052;2022-12-18T11:42:24;62.95;;;23.20;;
65996;SDS011;52765;52.258;21.052;2022-12-18T11:45:23;60.15;;;20.85;;
65996;SDS011;52765;52.258;21.052;2022-12-18T11:50:23;65.88;;;23.25;;
65996;SDS011;52765;52.258;21.052;2022-12-18T11:52:51;62.75;;;22.85;;
65996;SDS011;52765;52.258;21.052;2022-12-18T11:55:28;63.25;;;24.00;;
65996;SDS011;52765;52.258;21.052;2022-12-18T12:09:30;61.60;;;21.98;;
65996;SDS011;52765;52.258;21.052;2022-12-18T12:17:42;62.72;;;22.05;;
65996;SDS011;52765;52.258;21.052;2022-12-18T12:25:52;64.00;;;22.55;;
65996;SDS011;52765;52.258;21.052;2022-12-18T12:31:31;69.57;;;24.10;;
65996;SDS011;52765;52.258;21.052;2022-12-18T12:45:13;59.85;;;21.58;;
65996;SDS011;52765;52.258;21.052;2022-12-18T12:50:13;65.55;;;22.55;;
65996;SDS011;52765;52.258;21.052;2022-12-18T12:52:42;62.50;;;22.15;;
65996;SDS011;52765;52.258;21.052;2022-12-18T12:55:22;69.90;;;23.92;;
65996;SDS011;52765;52.258;21.052;2022-12-18T13:00:46;63.83;;;23.05;;
65996;SDS011;52765;52.258;21.052;2022-12-18T13:06:00;70.35;;;22.80;;
65996;SDS011;52765;52.258;21.052;2022-12-18T13:08:51;65.40;;;23.17;;
65996;SDS011;52765;52.258;21.052;2022-12-18T13:11:42;64.28;;;23.38;;
65996;SDS011;52765;52.258;21.052;2022-12-18T13:14:38;67.28;;;23.15;;
65996;SDS011;52765;52.258;21.052;2022-12-18T13:17:15;66.90;;;24.23;;
65996;SDS011;52765;52.258;21.052;2022-12-18T13:20:02;64.97;;;23.13;;
65996;SDS011;52765;52.258;21.052;2022-12-18T13:28:04;64.65;;;23.73;;
65996;SDS011;52765;52.258;21.052;2022-12-18T13:40:57;71.20;;;24.95;;
65996;SDS011;52765;52.258;21.052;2022-12-18T13:43:42;69.47;;;25.25;;
65996;SDS011;52765;52.258;21.052;2022-12-18T13:49:00;67.63;;;21.98;;
65996;SDS011;52765;52.258;21.052;2022-12-18T13:51:28;62.28;;;23.35;;
65996;SDS011;52765;52.258;21.052;2022-12-18T13:53:58;63.17;;;23.42;;
65996;SDS011;52765;52.258;21.052;2022-12-18T13:56:29;65.32;;;23.63;;
65996;SDS011;52765;52.258;21.052;2022-12-18T14:01:59;69.00;;;23.55;;
65996;SDS011;52765;52.258;21.052;2022-12-18T14:04:33;61.22;;;22.23;;
65996;SDS011;52765;52.258;21.052;2022-12-18T14:09:31;56.83;;;21.50;;
65996;SDS011;52765;52.258;21.052;2022-12-18T14:12:01;64.50;;;24.33;;
65996;SDS011;52765;52.258;21.052;2022-12-18T14:14:49;60.97;;;22.63;;
65996;SDS011;52765;52.258;21.052;2022-12-18T14:17:17;66.88;;;22.42;;
65996;SDS011;52765;52.258;21.052;2022-12-18T14:19:45;63.58;;;22.33;;
65996;SDS011;52765;52.258;21.052;2022-12-18T14:22:17;62.35;;;23.42;;
65996;SDS011;52765;52.258;21.052;2022-12-18T14:24:45;67.50;;;23.42;;
65996;SDS011;52765;52.258;21.052;2022-12-18T14:27:12;64.55;;;23.33;;
65996;SDS011;52765;52.258;21.052;2022-12-18T14:29:46;78.38;;;24.67;;
65996;SDS011;52765;52.258;21.052;2022-12-18T14:34:41;64.47;;;22.42;;
65996;SDS011;52765;52.258;21.052;2022-12-18T14:37:09;61.65;;;23.27;;
65996;SDS011;52765;52.258;21.052;2022-12-18T14:39:35;60.85;;;21.45;;
65996;SDS011;52765;52.258;21.052;2022-12-18T14:42:01;60.15;;;22.40;;
65996;SDS011;52765;52.258;21.052;2022-12-18T14:44:26;70.65;;;25.45;;
65996;SDS011;52765;52.258;21.052;2022-12-18T14:46:53;67.30;;;24.08;;
65996;SDS011;52765;52.258;21.052;2022-12-18T14:49:26;59.63;;;22.27;;
65996;SDS011;52765;52.258;21.052;2022-12-18T14:51:57;65.45;;;21.75;;
65996;SDS011;52765;52.258;21.052;2022-12-18T14:54:27;68.95;;;23.17;;
65996;SDS011;52765;52.258;21.052;2022-12-18T14:59:27;57.88;;;21.35;;
65996;SDS011;52765;52.258;21.052;2022-12-18T15:04:36;63.47;;;22.60;;
65996;SDS011;52765;52.258;21.052;2022-12-18T15:07:21;69.13;;;24.00;;
65996;SDS011;52765;52.258;21.052;2022-12-18T15:15:00;73.57;;;25.15;;
65996;SDS011;52765;52.258;21.052;2022-12-18T15:17:26;63.80;;;23.08;;
65996;SDS011;52765;52.258;21.052;2022-12-18T15:19:58;74.07;;;24.15;;
65996;SDS011;52765;52.258;21.052;2022-12-18T15:22:33;68.72;;;26.40;;
65996;SDS011;52765;52.258;21.052;2022-12-18T15:25:01;75.75;;;26.10;;
65996;SDS011;52765;52.258;21.052;2022-12-18T15:29:59;68.22;;;23.58;;
65996;SDS011;52765;52.258;21.052;2022-12-18T15:32:35;62.58;;;22.83;;
65996;SDS011;52765;52.258;21.052;2022-12-18T15:35:03;69.97;;;24.45;;
65996;SDS011;52765;52.258;21.052;2022-12-18T15:37:34;74.05;;;25.60;;
65996;SDS011;52765;52.258;21.052;2022-12-18T15:40:00;67.93;;;25.48;;
65996;SDS011;52765;52.258;21.052;2022-12-18T15:42:27;61.00;;;22.60;;
65996;SDS011;52765;52.258;21.052;2022-12-18T15:45:12;63.15;;;22.80;;
65996;SDS011;52765;52.258;21.052;2022-12-18T15:47:38;66.95;;;24.60;;
65996;SDS011;52765;52.258;21.052;2022-12-18T15:50:04;66.93;;;23.20;;
65996;SDS011;52765;52.258;21.052;2022-12-18T15:52:36;65.78;;;23.88;;
65996;SDS011;52765;52.258;21.052;2022-12-18T15:55:17;61.00;;;23.20;;
65996;SDS011;52765;52.258;21.052;2022-12-18T15:58:05;64.28;;;23.52;;
65996;SDS011;52765;52.258;21.052;2022-12-18T16:00:32;63.22;;;21.10;;
65996;SDS011;52765;52.258;21.052;2022-12-18T16:03:03;55.42;;;20.98;;
65996;SDS011;52765;52.258;21.052;2022-12-18T16:05:31;56.85;;;21.92;;
65996;SDS011;52765;52.258;21.052;2022-12-18T16:07:57;66.93;;;24.10;;
65996;SDS011;52765;52.258;21.052;2022-12-18T16:10:24;64.57;;;23.50;;
65996;SDS011;52765;52.258;21.052;2022-12-18T16:12:51;54.65;;;21.73;;
65996;SDS011;52765;52.258;21.052;2022-12-18T16:15:20;56.42;;;22.05;;
65996;SDS011;52765;52.258;21.052;2022-12-18T16:17:47;59.45;;;22.13;;
65996;SDS011;52765;52.258;21.052;2022-12-18T16:20:14;58.13;;;21.52;;
65996;SDS011;52765;52.258;21.052;2022-12-18T16:22:46;56.85;;;22.02;;
65996;SDS011;52765;52.258;21.052;2022-12-18T16:27:45;61.78;;;22.48;;
65996;SDS011;52765;52.258;21.052;2022-12-18T16:30:15;61.70;;;23.95;;
65996;SDS011;52765;52.258;21.052;2022-12-18T16:32:41;69.07;;;24.85;;
65996;SDS011;52765;52.258;21.052;2022-12-18T16:35:16;58.08;;;22.98;;
65996;SDS011;52765;52.258;21.052;2022-12-18T16:37:42;62.97;;;23.27;;
65996;SDS011;52765;52.258;21.052;2022-12-18T16:40:09;67.18;;;23.17;;
65996;SDS011;52765;52.258;21.052;2022-12-18T16:42:38;53.67;;;20.25;;
65996;SDS011;52765;52.258;21.052;2022-12-18T16:45:07;50.50;;;20.23;;
65996;SDS011;52765;52.258;21.052;2022-12-18T16:47:36;54.40;;;19.65;;
65996;SDS011;52765;52.258;21.052;2022-12-18T16:50:02;49.58;;;20.05;;
65996;SDS011;52765;52.258;21.052;2022-12-18T16:52:28;53.65;;;19.13;;
65996;SDS011;52765;52.258;21.052;2022-12-18T16:54:57;53.65;;;19.77;;
65996;SDS011;52765;52.258;21.052;2022-12-18T16:57:22;51.95;;;19.98;;